sensor_id;sensor_type;location;lat;lon;timestamp;P1;durP1;ratioP1;P2;durP2;ratioP2
62582;SDS011;48641;51.676;5.808;2023-09-19T00:01:39;7.05;;;2.20;;
62582;SDS011;48641;51.676;5.808;2023-09-19T00:04:11;5.80;;;1.70;;
62582;SDS011;48641;51.676;5.808;2023-09-19T00:06:37;6.22;;;1.80;;
62582;SDS011;48641;51.676;5.808;2023-09-19T00:09:03;5.53;;;2.35;;
62582;SDS011;48641;51.676;5.808;2023-09-19T00:11:29;7.82;;;2.13;;
62582;SDS011;48641;51.676;5.808;2023-09-19T00:13:56;5.50;;;1.80;;
62582;SDS011;48641;51.676;5.808;2023-09-19T00:16:24;5.68;;;1.80;;
62582;SDS011;48641;51.676;5.808;2023-09-19T00:18:50;6.65;;;1.90;;
62582;SDS011;48641;51.676;5.808;2023-09-19T00:21:17;4.63;;;1.60;;
62582;SDS011;48641;51.676;5.808;2023-09-19T00:23:45;7.03;;;1.97;;
62582;SDS011;48641;51.676;5.808;2023-09-19T00:26:11;7.93;;;2.10;;
62582;SDS011;48641;51.676;5.808;2023-09-19T00:28:37;5.57;;;2.10;;
62582;SDS011;48641;51.676;5.808;2023-09-19T00:31:04;5.05;;;1.73;;
62582;SDS011;48641;51.676;5.808;2023-09-19T00:33:33;5.40;;;1.70;;
62582;SDS011;48641;51.676;5.808;2023-09-19T00:35:59;5.68;;;1.90;;
62582;SDS011;48641;51.676;5.808;2023-09-19T00:38:27;6.20;;;1.83;;
62582;SDS011;48641;51.676;5.808;2023-09-19T00:40:52;7.45;;;2.22;;
62582;SDS011;48641;51.676;5.808;2023-09-19T00:43:20;6.22;;;2.08;;
62582;SDS011;48641;51.676;5.808;2023-09-19T00:45:47;4.47;;;1.58;;
62582;SDS011;48641;51.676;5.808;2023-09-19T00:48:16;6.55;;;1.90;;
62582;SDS011;48641;51.676;5.808;2023-09-19T00:50:42;6.40;;;1.85;;
62582;SDS011;48641;51.676;5.808;2023-09-19T00:53:09;4.65;;;1.60;;
62582;SDS011;48641;51.676;5.808;2023-09-19T00:55:38;5.82;;;1.50;;
62582;SDS011;48641;51.676;5.808;2023-09-19T00:58:06;5.45;;;1.77;;
62582;SDS011;48641;51.676;5.808;2023-09-19T01:00:32;4.90;;;1.60;;
62582;SDS011;48641;51.676;5.808;2023-09-19T01:02:59;6.53;;;1.70;;
62582;SDS011;48641;51.676;5.808;2023-09-19T01:05:28;4.93;;;1.60;;
62582;SDS011;48641;51.676;5.808;2023-09-19T01:07:55;6.03;;;1.60;;
62582;SDS011;48641;51.676;5.808;2023-09-19T01:10:20;5.28;;;1.60;;
62582;SDS011;48641;51.676;5.808;2023-09-19T01:32:10;5.32;;;1.60;;
62582;SDS011;48641;51.676;5.808;2023-09-19T01:34:46;4.75;;;1.50;;
62582;SDS011;48641;51.676;5.808;2023-09-19T01:37:12;6.97;;;1.80;;
62582;SDS011;48641;51.676;5.808;2023-09-19T01:39:39;6.57;;;1.60;;
62582;SDS011;48641;51.676;5.808;2023-09-19T01:42:08;6.63;;;1.67;;
62582;SDS011;48641;51.676;5.808;2023-09-19T01:44:58;6.03;;;1.73;;
62582;SDS011;48641;51.676;5.808;2023-09-19T01:47:33;4.65;;;1.50;;
62582;SDS011;48641;51.676;5.808;2023-09-19T01:52:36;5.18;;;1.50;;
62582;SDS011;48641;51.676;5.808;2023-09-19T01:55:10;7.05;;;1.63;;
62582;SDS011;48641;51.676;5.808;2023-09-19T01:57:54;4.43;;;1.33;;
62582;SDS011;48641;51.676;5.808;2023-09-19T02:00:32;5.43;;;1.33;;
62582;SDS011;48641;51.676;5.808;2023-09-19T02:03:01;5.97;;;1.45;;
62582;SDS011;48641;51.676;5.808;2023-09-19T02:05:27;4.72;;;1.17;;
62582;SDS011;48641;51.676;5.808;2023-09-19T02:07:53;6.90;;;1.50;;
62582;SDS011;48641;51.676;5.808;2023-09-19T02:10:20;6.22;;;1.35;;
62582;SDS011;48641;51.676;5.808;2023-09-19T02:12:46;4.78;;;1.30;;
62582;SDS011;48641;51.676;5.808;2023-09-19T02:15:12;5.82;;;1.50;;
62582;SDS011;48641;51.676;5.808;2023-09-19T02:17:41;5.57;;;1.40;;
62582;SDS011;48641;51.676;5.808;2023-09-19T02:20:08;5.13;;;1.50;;
62582;SDS011;48641;51.676;5.808;2023-09-19T02:22:35;5.50;;;1.52;;
62582;SDS011;48641;51.676;5.808;2023-09-19T02:25:01;5.22;;;1.40;;
62582;SDS011;48641;51.676;5.808;2023-09-19T02:27:26;5.00;;;1.50;;
62582;SDS011;48641;51.676;5.808;2023-09-19T02:29:52;4.82;;;1.45;;
62582;SDS011;48641;51.676;5.808;2023-09-19T02:32:19;4.70;;;1.48;;
62582;SDS011;48641;51.676;5.808;2023-09-19T02:34:44;4.45;;;1.40;;
62582;SDS011;48641;51.676;5.808;2023-09-19T02:37:10;4.32;;;1.20;;
62582;SDS011;48641;51.676;5.808;2023-09-19T02:39:35;3.42;;;1.10;;
62582;SDS011;48641;51.676;5.808;2023-09-19T02:42:02;4.65;;;1.42;;
62582;SDS011;48641;51.676;5.808;2023-09-19T02:44:29;5.75;;;1.40;;
62582;SDS011;48641;51.676;5.808;2023-09-19T02:46:55;4.05;;;1.38;;
62582;SDS011;48641;51.676;5.808;2023-09-19T02:49:22;6.53;;;1.70;;
62582;SDS011;48641;51.676;5.808;2023-09-19T02:51:48;4.82;;;1.45;;
62582;SDS011;48641;51.676;5.808;2023-09-19T02:54:14;9.75;;;1.30;;
62582;SDS011;48641;51.676;5.808;2023-09-19T02:56:40;5.13;;;1.42;;
62582;SDS011;48641;51.676;5.808;2023-09-19T02:59:06;2.40;;;1.00;;
62582;SDS011;48641;51.676;5.808;2023-09-19T03:01:32;4.53;;;1.30;;
62582;SDS011;48641;51.676;5.808;2023-09-19T03:03:58;4.55;;;1.40;;
62582;SDS011;48641;51.676;5.808;2023-09-19T03:06:24;4.93;;;1.50;;
62582;SDS011;48641;51.676;5.808;2023-09-19T03:08:49;5.07;;;1.33;;
62582;SDS011;48641;51.676;5.808;2023-09-19T03:11:16;4.65;;;1.50;;
62582;SDS011;48641;51.676;5.808;2023-09-19T03:13:50;5.78;;;1.40;;
62582;SDS011;48641;51.676;5.808;2023-09-19T03:16:16;3.70;;;1.20;;
62582;SDS011;48641;51.676;5.808;2023-09-19T03:18:44;1.75;;;0.93;;
62582;SDS011;48641;51.676;5.808;2023-09-19T03:21:10;5.95;;;1.40;;
62582;SDS011;48641;51.676;5.808;2023-09-19T03:23:35;5.30;;;1.70;;
62582;SDS011;48641;51.676;5.808;2023-09-19T03:26:01;4.28;;;1.20;;
62582;SDS011;48641;51.676;5.808;2023-09-19T03:28:26;5.63;;;1.52;;
62582;SDS011;48641;51.676;5.808;2023-09-19T03:31:02;4.88;;;1.20;;
62582;SDS011;48641;51.676;5.808;2023-09-19T03:33:29;4.60;;;1.30;;
62582;SDS011;48641;51.676;5.808;2023-09-19T03:35:58;4.20;;;1.25;;
62582;SDS011;48641;51.676;5.808;2023-09-19T03:38:25;5.65;;;1.52;;
62582;SDS011;48641;51.676;5.808;2023-09-19T03:40:54;3.40;;;1.27;;
62582;SDS011;48641;51.676;5.808;2023-09-19T03:43:20;4.15;;;1.10;;
62582;SDS011;48641;51.676;5.808;2023-09-19T03:45:45;4.38;;;1.23;;
62582;SDS011;48641;51.676;5.808;2023-09-19T03:48:15;6.13;;;1.35;;
62582;SDS011;48641;51.676;5.808;2023-09-19T03:50:41;5.25;;;1.38;;
62582;SDS011;48641;51.676;5.808;2023-09-19T03:53:08;3.28;;;1.20;;
62582;SDS011;48641;51.676;5.808;2023-09-19T03:55:34;5.07;;;1.30;;
62582;SDS011;48641;51.676;5.808;2023-09-19T03:58:04;4.85;;;1.23;;
62582;SDS011;48641;51.676;5.808;2023-09-19T04:00:29;6.00;;;1.40;;
62582;SDS011;48641;51.676;5.808;2023-09-19T04:02:55;4.78;;;1.25;;
62582;SDS011;48641;51.676;5.808;2023-09-19T04:05:22;4.70;;;1.30;;
62582;SDS011;48641;51.676;5.808;2023-09-19T04:07:48;5.50;;;1.23;;
62582;SDS011;48641;51.676;5.808;2023-09-19T04:10:13;5.07;;;1.23;;
62582;SDS011;48641;51.676;5.808;2023-09-19T04:12:40;6.32;;;1.42;;
62582;SDS011;48641;51.676;5.808;2023-09-19T04:15:05;5.07;;;1.00;;
62582;SDS011;48641;51.676;5.808;2023-09-19T04:17:32;5.00;;;1.25;;
62582;SDS011;48641;51.676;5.808;2023-09-19T04:19:58;4.28;;;1.20;;
62582;SDS011;48641;51.676;5.808;2023-09-19T04:22:24;5.80;;;1.23;;
62582;SDS011;48641;51.676;5.808;2023-09-19T04:24:50;5.80;;;1.40;;
62582;SDS011;48641;51.676;5.808;2023-09-19T04:27:15;4.68;;;1.00;;
62582;SDS011;48641;51.676;5.808;2023-09-19T04:29:41;4.18;;;1.20;;
62582;SDS011;48641;51.676;5.808;2023-09-19T04:32:07;3.38;;;1.05;;
62582;SDS011;48641;51.676;5.808;2023-09-19T04:34:36;4.65;;;1.10;;
62582;SDS011;48641;51.676;5.808;2023-09-19T04:37:03;3.47;;;1.00;;
62582;SDS011;48641;51.676;5.808;2023-09-19T04:39:29;4.35;;;1.25;;
62582;SDS011;48641;51.676;5.808;2023-09-19T04:41:54;4.05;;;1.20;;
62582;SDS011;48641;51.676;5.808;2023-09-19T04:44:20;3.67;;;1.10;;
62582;SDS011;48641;51.676;5.808;2023-09-19T04:46:46;3.95;;;1.20;;
62582;SDS011;48641;51.676;5.808;2023-09-19T04:49:12;6.40;;;1.30;;
62582;SDS011;48641;51.676;5.808;2023-09-19T04:51:38;4.70;;;1.33;;
62582;SDS011;48641;51.676;5.808;2023-09-19T04:54:04;5.03;;;1.20;;
62582;SDS011;48641;51.676;5.808;2023-09-19T04:56:30;4.38;;;1.00;;
62582;SDS011;48641;51.676;5.808;2023-09-19T04:58:57;2.97;;;1.00;;
62582;SDS011;48641;51.676;5.808;2023-09-19T05:01:23;4.82;;;0.98;;
62582;SDS011;48641;51.676;5.808;2023-09-19T05:03:49;4.85;;;1.02;;
62582;SDS011;48641;51.676;5.808;2023-09-19T05:06:20;3.92;;;0.98;;
62582;SDS011;48641;51.676;5.808;2023-09-19T05:11:19;5.15;;;1.05;;
62582;SDS011;48641;51.676;5.808;2023-09-19T05:13:46;3.95;;;1.10;;
62582;SDS011;48641;51.676;5.808;2023-09-19T05:16:12;3.80;;;0.90;;
62582;SDS011;48641;51.676;5.808;2023-09-19T05:18:38;3.60;;;1.02;;
62582;SDS011;48641;51.676;5.808;2023-09-19T05:21:03;4.53;;;1.20;;
62582;SDS011;48641;51.676;5.808;2023-09-19T05:23:29;7.05;;;1.30;;
62582;SDS011;48641;51.676;5.808;2023-09-19T05:25:56;5.75;;;1.25;;
62582;SDS011;48641;51.676;5.808;2023-09-19T05:28:24;10.35;;;1.88;;
62582;SDS011;48641;51.676;5.808;2023-09-19T05:30:50;6.93;;;1.30;;
62582;SDS011;48641;51.676;5.808;2023-09-19T05:33:16;6.80;;;1.25;;
62582;SDS011;48641;51.676;5.808;2023-09-19T05:35:47;5.30;;;1.33;;
62582;SDS011;48641;51.676;5.808;2023-09-19T05:38:13;6.28;;;1.35;;
62582;SDS011;48641;51.676;5.808;2023-09-19T05:40:43;6.20;;;1.40;;
62582;SDS011;48641;51.676;5.808;2023-09-19T05:43:10;4.55;;;1.05;;
62582;SDS011;48641;51.676;5.808;2023-09-19T05:45:35;5.32;;;1.10;;
62582;SDS011;48641;51.676;5.808;2023-09-19T05:48:11;4.82;;;1.10;;
62582;SDS011;48641;51.676;5.808;2023-09-19T05:50:41;6.72;;;1.52;;
62582;SDS011;48641;51.676;5.808;2023-09-19T05:53:07;4.28;;;1.30;;
62582;SDS011;48641;51.676;5.808;2023-09-19T05:55:37;7.32;;;1.40;;
62582;SDS011;48641;51.676;5.808;2023-09-19T05:58:02;6.00;;;1.40;;
62582;SDS011;48641;51.676;5.808;2023-09-19T06:00:28;5.85;;;1.20;;
62582;SDS011;48641;51.676;5.808;2023-09-19T06:02:57;4.70;;;1.20;;
62582;SDS011;48641;51.676;5.808;2023-09-19T06:05:24;5.63;;;1.20;;
62582;SDS011;48641;51.676;5.808;2023-09-19T06:07:51;3.90;;;1.20;;
62582;SDS011;48641;51.676;5.808;2023-09-19T06:10:18;4.95;;;1.27;;
62582;SDS011;48641;51.676;5.808;2023-09-19T06:12:46;5.15;;;1.20;;
62582;SDS011;48641;51.676;5.808;2023-09-19T06:15:13;4.68;;;1.00;;
62582;SDS011;48641;51.676;5.808;2023-09-19T06:17:48;4.75;;;1.40;;
62582;SDS011;48641;51.676;5.808;2023-09-19T06:20:15;4.25;;;1.00;;
62582;SDS011;48641;51.676;5.808;2023-09-19T06:22:42;5.22;;;1.10;;
62582;SDS011;48641;51.676;5.808;2023-09-19T06:25:09;4.22;;;0.95;;
62582;SDS011;48641;51.676;5.808;2023-09-19T06:27:39;5.72;;;1.17;;
62582;SDS011;48641;51.676;5.808;2023-09-19T06:30:10;5.80;;;1.33;;
62582;SDS011;48641;51.676;5.808;2023-09-19T06:32:37;4.65;;;1.20;;
62582;SDS011;48641;51.676;5.808;2023-09-19T06:35:03;5.45;;;1.02;;
62582;SDS011;48641;51.676;5.808;2023-09-19T06:37:32;6.13;;;1.60;;
62582;SDS011;48641;51.676;5.808;2023-09-19T06:39:59;4.80;;;1.17;;
62582;SDS011;48641;51.676;5.808;2023-09-19T06:42:25;5.45;;;1.15;;
62582;SDS011;48641;51.676;5.808;2023-09-19T06:44:51;5.47;;;1.30;;
62582;SDS011;48641;51.676;5.808;2023-09-19T06:47:18;4.88;;;1.13;;
62582;SDS011;48641;51.676;5.808;2023-09-19T06:49:44;4.07;;;1.00;;
62582;SDS011;48641;51.676;5.808;2023-09-19T06:52:10;5.95;;;1.08;;
62582;SDS011;48641;51.676;5.808;2023-09-19T06:54:35;4.40;;;1.27;;
62582;SDS011;48641;51.676;5.808;2023-09-19T06:57:01;4.35;;;1.23;;
62582;SDS011;48641;51.676;5.808;2023-09-19T06:59:28;4.03;;;1.35;;
62582;SDS011;48641;51.676;5.808;2023-09-19T07:01:53;3.83;;;0.98;;
62582;SDS011;48641;51.676;5.808;2023-09-19T07:04:19;5.30;;;1.40;;
62582;SDS011;48641;51.676;5.808;2023-09-19T07:06:52;4.43;;;1.13;;
62582;SDS011;48641;51.676;5.808;2023-09-19T07:09:17;5.88;;;1.10;;
62582;SDS011;48641;51.676;5.808;2023-09-19T07:11:47;5.60;;;1.30;;
62582;SDS011;48641;51.676;5.808;2023-09-19T07:14:13;4.75;;;0.95;;
62582;SDS011;48641;51.676;5.808;2023-09-19T07:16:38;5.38;;;1.48;;
62582;SDS011;48641;51.676;5.808;2023-09-19T07:19:07;3.47;;;0.90;;
62582;SDS011;48641;51.676;5.808;2023-09-19T07:21:33;4.72;;;0.93;;
62582;SDS011;48641;51.676;5.808;2023-09-19T07:24:00;5.07;;;1.20;;
62582;SDS011;48641;51.676;5.808;2023-09-19T07:26:26;5.40;;;1.10;;
62582;SDS011;48641;51.676;5.808;2023-09-19T07:28:53;4.18;;;1.20;;
62582;SDS011;48641;51.676;5.808;2023-09-19T07:31:19;5.88;;;1.23;;
62582;SDS011;48641;51.676;5.808;2023-09-19T07:33:44;5.80;;;1.20;;
62582;SDS011;48641;51.676;5.808;2023-09-19T07:36:10;4.13;;;0.93;;
62582;SDS011;48641;51.676;5.808;2023-09-19T07:38:38;3.60;;;0.82;;
62582;SDS011;48641;51.676;5.808;2023-09-19T07:41:05;5.35;;;1.02;;
62582;SDS011;48641;51.676;5.808;2023-09-19T07:43:30;7.32;;;1.17;;
62582;SDS011;48641;51.676;5.808;2023-09-19T07:45:56;6.30;;;1.35;;
62582;SDS011;48641;51.676;5.808;2023-09-19T07:48:22;4.05;;;1.15;;
62582;SDS011;48641;51.676;5.808;2023-09-19T07:50:50;3.50;;;1.00;;
62582;SDS011;48641;51.676;5.808;2023-09-19T07:53:16;5.03;;;1.00;;
62582;SDS011;48641;51.676;5.808;2023-09-19T07:55:42;3.78;;;1.02;;
62582;SDS011;48641;51.676;5.808;2023-09-19T07:58:13;5.10;;;1.20;;
62582;SDS011;48641;51.676;5.808;2023-09-19T08:00:40;4.18;;;1.08;;
62582;SDS011;48641;51.676;5.808;2023-09-19T08:03:06;5.47;;;1.20;;
62582;SDS011;48641;51.676;5.808;2023-09-19T08:05:33;4.68;;;1.00;;
62582;SDS011;48641;51.676;5.808;2023-09-19T08:07:59;5.00;;;1.05;;
62582;SDS011;48641;51.676;5.808;2023-09-19T08:10:26;4.43;;;0.88;;
62582;SDS011;48641;51.676;5.808;2023-09-19T08:12:52;5.97;;;1.08;;
62582;SDS011;48641;51.676;5.808;2023-09-19T08:15:23;4.53;;;0.90;;
62582;SDS011;48641;51.676;5.808;2023-09-19T08:17:48;3.35;;;0.93;;
62582;SDS011;48641;51.676;5.808;2023-09-19T08:20:15;3.42;;;1.00;;
62582;SDS011;48641;51.676;5.808;2023-09-19T08:22:47;4.88;;;0.95;;
62582;SDS011;48641;51.676;5.808;2023-09-19T08:25:17;5.32;;;1.05;;
62582;SDS011;48641;51.676;5.808;2023-09-19T08:30:12;4.68;;;0.88;;
62582;SDS011;48641;51.676;5.808;2023-09-19T08:32:39;5.35;;;1.23;;
62582;SDS011;48641;51.676;5.808;2023-09-19T08:35:07;5.85;;;1.20;;
62582;SDS011;48641;51.676;5.808;2023-09-19T08:37:34;5.07;;;1.08;;
62582;SDS011;48641;51.676;5.808;2023-09-19T08:40:00;3.88;;;0.95;;
62582;SDS011;48641;51.676;5.808;2023-09-19T08:42:25;5.28;;;1.20;;
62582;SDS011;48641;51.676;5.808;2023-09-19T08:44:52;4.10;;;1.13;;
62582;SDS011;48641;51.676;5.808;2023-09-19T08:47:23;4.20;;;1.05;;
62582;SDS011;48641;51.676;5.808;2023-09-19T08:50:04;5.72;;;1.08;;
62582;SDS011;48641;51.676;5.808;2023-09-19T08:52:41;4.50;;;1.55;;
62582;SDS011;48641;51.676;5.808;2023-09-19T08:55:11;4.90;;;1.25;;
62582;SDS011;48641;51.676;5.808;2023-09-19T08:57:38;6.20;;;1.30;;
62582;SDS011;48641;51.676;5.808;2023-09-19T09:02:36;6.15;;;1.15;;
62582;SDS011;48641;51.676;5.808;2023-09-19T09:05:06;4.78;;;1.10;;
62582;SDS011;48641;51.676;5.808;2023-09-19T09:07:36;4.45;;;1.15;;
62582;SDS011;48641;51.676;5.808;2023-09-19T09:10:03;3.78;;;1.05;;
62582;SDS011;48641;51.676;5.808;2023-09-19T09:12:29;4.90;;;1.27;;
62582;SDS011;48641;51.676;5.808;2023-09-19T09:14:55;3.50;;;0.90;;
62582;SDS011;48641;51.676;5.808;2023-09-19T09:17:22;6.38;;;1.17;;
62582;SDS011;48641;51.676;5.808;2023-09-19T09:19:51;4.15;;;1.10;;
62582;SDS011;48641;51.676;5.808;2023-09-19T09:22:18;3.83;;;0.90;;
62582;SDS011;48641;51.676;5.808;2023-09-19T09:24:52;5.53;;;1.02;;
62582;SDS011;48641;51.676;5.808;2023-09-19T09:27:26;6.05;;;1.42;;
62582;SDS011;48641;51.676;5.808;2023-09-19T09:29:52;5.47;;;1.20;;
62582;SDS011;48641;51.676;5.808;2023-09-19T09:34:52;4.43;;;1.25;;
62582;SDS011;48641;51.676;5.808;2023-09-19T09:37:21;5.82;;;1.17;;
62582;SDS011;48641;51.676;5.808;2023-09-19T09:39:51;5.82;;;1.15;;
62582;SDS011;48641;51.676;5.808;2023-09-19T09:42:38;6.15;;;1.13;;
62582;SDS011;48641;51.676;5.808;2023-09-19T09:45:16;4.32;;;1.10;;
62582;SDS011;48641;51.676;5.808;2023-09-19T09:47:48;6.05;;;1.30;;
62582;SDS011;48641;51.676;5.808;2023-09-19T09:50:28;6.10;;;1.35;;
62582;SDS011;48641;51.676;5.808;2023-09-19T09:58:23;6.28;;;1.17;;
62582;SDS011;48641;51.676;5.808;2023-09-19T10:00:54;4.90;;;1.10;;
62582;SDS011;48641;51.676;5.808;2023-09-19T10:03:30;4.45;;;1.10;;
62582;SDS011;48641;51.676;5.808;2023-09-19T10:06:04;5.13;;;1.10;;
62582;SDS011;48641;51.676;5.808;2023-09-19T10:11:48;7.20;;;1.70;;
62582;SDS011;48641;51.676;5.808;2023-09-19T10:14:30;6.47;;;1.30;;
62582;SDS011;48641;51.676;5.808;2023-09-19T10:16:59;6.22;;;1.35;;
62582;SDS011;48641;51.676;5.808;2023-09-19T10:19:42;5.32;;;1.13;;
62582;SDS011;48641;51.676;5.808;2023-09-19T10:22:16;5.50;;;1.65;;
62582;SDS011;48641;51.676;5.808;2023-09-19T10:24:47;3.85;;;1.10;;
62582;SDS011;48641;51.676;5.808;2023-09-19T10:27:18;5.68;;;1.40;;
62582;SDS011;48641;51.676;5.808;2023-09-19T10:29:48;4.90;;;1.23;;
62582;SDS011;48641;51.676;5.808;2023-09-19T10:32:19;5.50;;;1.00;;
62582;SDS011;48641;51.676;5.808;2023-09-19T10:34:47;5.30;;;1.07;;
62582;SDS011;48641;51.676;5.808;2023-09-19T10:37:13;5.88;;;1.10;;
62582;SDS011;48641;51.676;5.808;2023-09-19T10:39:41;4.97;;;1.10;;
62582;SDS011;48641;51.676;5.808;2023-09-19T10:42:16;5.78;;;1.25;;
62582;SDS011;48641;51.676;5.808;2023-09-19T10:44:45;3.47;;;0.95;;
62582;SDS011;48641;51.676;5.808;2023-09-19T10:47:16;4.22;;;0.90;;
62582;SDS011;48641;51.676;5.808;2023-09-19T10:49:44;5.25;;;1.10;;
62582;SDS011;48641;51.676;5.808;2023-09-19T10:52:17;6.40;;;1.10;;
62582;SDS011;48641;51.676;5.808;2023-09-19T10:54:50;5.70;;;1.27;;
62582;SDS011;48641;51.676;5.808;2023-09-19T10:57:20;5.18;;;1.20;;
62582;SDS011;48641;51.676;5.808;2023-09-19T11:00:02;6.05;;;1.10;;
62582;SDS011;48641;51.676;5.808;2023-09-19T11:05:36;3.88;;;1.02;;
62582;SDS011;48641;51.676;5.808;2023-09-19T11:08:09;4.82;;;1.30;;
62582;SDS011;48641;51.676;5.808;2023-09-19T11:10:50;7.25;;;1.40;;
62582;SDS011;48641;51.676;5.808;2023-09-19T11:13:26;5.57;;;1.20;;
62582;SDS011;48641;51.676;5.808;2023-09-19T11:21:52;5.63;;;1.35;;
62582;SDS011;48641;51.676;5.808;2023-09-19T11:26:42;6.95;;;1.20;;
62582;SDS011;48641;51.676;5.808;2023-09-19T11:29:24;4.88;;;1.02;;
62582;SDS011;48641;51.676;5.808;2023-09-19T11:31:51;4.18;;;1.20;;
62582;SDS011;48641;51.676;5.808;2023-09-19T11:37:01;4.35;;;1.10;;
62582;SDS011;48641;51.676;5.808;2023-09-19T11:39:38;4.13;;;1.00;;
62582;SDS011;48641;51.676;5.808;2023-09-19T11:48:11;4.18;;;0.88;;
62582;SDS011;48641;51.676;5.808;2023-09-19T11:50:43;5.60;;;1.00;;
62582;SDS011;48641;51.676;5.808;2023-09-19T11:53:13;3.85;;;1.02;;
62582;SDS011;48641;51.676;5.808;2023-09-19T11:55:41;5.88;;;1.10;;
62582;SDS011;48641;51.676;5.808;2023-09-19T11:58:10;3.42;;;1.00;;
62582;SDS011;48641;51.676;5.808;2023-09-19T12:00:43;4.43;;;1.20;;
62582;SDS011;48641;51.676;5.808;2023-09-19T12:03:11;4.95;;;1.10;;
62582;SDS011;48641;51.676;5.808;2023-09-19T12:05:39;5.55;;;1.40;;
62582;SDS011;48641;51.676;5.808;2023-09-19T12:08:05;4.93;;;1.45;;
62582;SDS011;48641;51.676;5.808;2023-09-19T12:10:34;4.68;;;1.15;;
62582;SDS011;48641;51.676;5.808;2023-09-19T12:13:19;4.63;;;1.08;;
62582;SDS011;48641;51.676;5.808;2023-09-19T12:15:45;4.30;;;1.10;;
62582;SDS011;48641;51.676;5.808;2023-09-19T12:18:28;4.15;;;1.00;;
62582;SDS011;48641;51.676;5.808;2023-09-19T12:20:55;3.90;;;1.00;;
62582;SDS011;48641;51.676;5.808;2023-09-19T12:23:22;4.68;;;1.13;;
62582;SDS011;48641;51.676;5.808;2023-09-19T12:25:48;4.93;;;1.25;;
62582;SDS011;48641;51.676;5.808;2023-09-19T12:28:17;4.47;;;1.00;;
62582;SDS011;48641;51.676;5.808;2023-09-19T12:30:43;4.40;;;1.00;;
62582;SDS011;48641;51.676;5.808;2023-09-19T12:33:18;4.85;;;1.20;;
62582;SDS011;48641;51.676;5.808;2023-09-19T12:35:46;3.53;;;0.93;;
62582;SDS011;48641;51.676;5.808;2023-09-19T12:38:22;6.03;;;1.00;;
62582;SDS011;48641;51.676;5.808;2023-09-19T12:40:49;4.55;;;0.80;;
62582;SDS011;48641;51.676;5.808;2023-09-19T12:43:16;4.60;;;1.02;;
62582;SDS011;48641;51.676;5.808;2023-09-19T12:45:43;4.78;;;1.20;;
62582;SDS011;48641;51.676;5.808;2023-09-19T12:51:04;4.50;;;0.95;;
62582;SDS011;48641;51.676;5.808;2023-09-19T12:53:31;3.90;;;0.90;;
62582;SDS011;48641;51.676;5.808;2023-09-19T12:56:01;4.18;;;0.90;;
62582;SDS011;48641;51.676;5.808;2023-09-19T12:58:26;4.20;;;0.90;;
62582;SDS011;48641;51.676;5.808;2023-09-19T13:00:55;4.18;;;0.70;;
62582;SDS011;48641;51.676;5.808;2023-09-19T13:05:48;5.55;;;0.80;;
62582;SDS011;48641;51.676;5.808;2023-09-19T13:08:19;2.33;;;0.68;;
62582;SDS011;48641;51.676;5.808;2023-09-19T13:11:01;5.20;;;1.10;;
62582;SDS011;48641;51.676;5.808;2023-09-19T13:16:52;2.53;;;0.90;;
62582;SDS011;48641;51.676;5.808;2023-09-19T13:25:01;3.25;;;0.93;;
62582;SDS011;48641;51.676;5.808;2023-09-19T13:27:29;5.20;;;1.00;;
62582;SDS011;48641;51.676;5.808;2023-09-19T13:29:54;3.10;;;0.90;;
62582;SDS011;48641;51.676;5.808;2023-09-19T13:32:20;3.83;;;0.90;;
62582;SDS011;48641;51.676;5.808;2023-09-19T13:34:45;3.03;;;1.00;;
62582;SDS011;48641;51.676;5.808;2023-09-19T13:37:11;3.45;;;0.95;;
62582;SDS011;48641;51.676;5.808;2023-09-19T13:39:38;3.17;;;1.00;;
62582;SDS011;48641;51.676;5.808;2023-09-19T13:42:08;2.60;;;0.77;;
62582;SDS011;48641;51.676;5.808;2023-09-19T13:44:36;2.65;;;0.70;;
62582;SDS011;48641;51.676;5.808;2023-09-19T13:47:03;4.80;;;0.80;;
62582;SDS011;48641;51.676;5.808;2023-09-19T13:49:34;4.50;;;0.98;;
62582;SDS011;48641;51.676;5.808;2023-09-19T13:52:00;2.90;;;0.88;;
62582;SDS011;48641;51.676;5.808;2023-09-19T13:54:28;3.00;;;0.80;;
62582;SDS011;48641;51.676;5.808;2023-09-19T13:56:54;2.90;;;0.77;;
62582;SDS011;48641;51.676;5.808;2023-09-19T13:59:20;4.25;;;0.88;;
62582;SDS011;48641;51.676;5.808;2023-09-19T14:01:48;3.35;;;0.80;;
62582;SDS011;48641;51.676;5.808;2023-09-19T14:04:14;3.63;;;0.70;;
62582;SDS011;48641;51.676;5.808;2023-09-19T14:06:41;3.67;;;0.88;;
62582;SDS011;48641;51.676;5.808;2023-09-19T14:09:07;3.75;;;0.93;;
62582;SDS011;48641;51.676;5.808;2023-09-19T14:11:34;3.60;;;0.65;;
62582;SDS011;48641;51.676;5.808;2023-09-19T14:14:00;5.75;;;0.90;;
62582;SDS011;48641;51.676;5.808;2023-09-19T14:16:25;2.08;;;0.60;;
62582;SDS011;48641;51.676;5.808;2023-09-19T14:18:55;9.68;;;1.20;;
62582;SDS011;48641;51.676;5.808;2023-09-19T14:21:20;7.72;;;1.15;;
62582;SDS011;48641;51.676;5.808;2023-09-19T14:23:46;5.47;;;1.10;;
62582;SDS011;48641;51.676;5.808;2023-09-19T14:26:13;5.72;;;0.80;;
62582;SDS011;48641;51.676;5.808;2023-09-19T14:28:39;7.00;;;0.82;;
62582;SDS011;48641;51.676;5.808;2023-09-19T14:31:05;4.07;;;0.70;;
62582;SDS011;48641;51.676;5.808;2023-09-19T14:33:32;7.70;;;1.20;;
62582;SDS011;48641;51.676;5.808;2023-09-19T14:35:57;7.93;;;0.93;;
62582;SDS011;48641;51.676;5.808;2023-09-19T14:38:23;5.47;;;0.90;;
62582;SDS011;48641;51.676;5.808;2023-09-19T14:40:48;6.72;;;1.27;;
62582;SDS011;48641;51.676;5.808;2023-09-19T14:43:23;5.82;;;1.10;;
62582;SDS011;48641;51.676;5.808;2023-09-19T14:45:49;5.63;;;1.38;;
62582;SDS011;48641;51.676;5.808;2023-09-19T14:48:14;6.57;;;0.95;;
62582;SDS011;48641;51.676;5.808;2023-09-19T14:50:40;6.10;;;0.90;;
62582;SDS011;48641;51.676;5.808;2023-09-19T14:53:05;6.47;;;0.98;;
62582;SDS011;48641;51.676;5.808;2023-09-19T14:55:36;6.15;;;1.10;;
62582;SDS011;48641;51.676;5.808;2023-09-19T14:58:06;4.18;;;1.00;;
62582;SDS011;48641;51.676;5.808;2023-09-19T15:00:32;3.15;;;0.85;;
62582;SDS011;48641;51.676;5.808;2023-09-19T15:02:59;5.28;;;1.25;;
62582;SDS011;48641;51.676;5.808;2023-09-19T15:05:25;5.32;;;0.80;;
62582;SDS011;48641;51.676;5.808;2023-09-19T15:07:50;7.93;;;1.13;;
62582;SDS011;48641;51.676;5.808;2023-09-19T15:10:16;5.70;;;0.88;;
62582;SDS011;48641;51.676;5.808;2023-09-19T15:12:43;3.92;;;0.98;;
62582;SDS011;48641;51.676;5.808;2023-09-19T15:15:09;5.53;;;1.00;;
62582;SDS011;48641;51.676;5.808;2023-09-19T15:17:35;7.45;;;1.10;;
62582;SDS011;48641;51.676;5.808;2023-09-19T15:20:02;4.05;;;0.80;;
62582;SDS011;48641;51.676;5.808;2023-09-19T15:22:31;6.45;;;0.98;;
62582;SDS011;48641;51.676;5.808;2023-09-19T15:24:58;3.80;;;0.90;;
62582;SDS011;48641;51.676;5.808;2023-09-19T15:27:24;4.07;;;0.82;;
62582;SDS011;48641;51.676;5.808;2023-09-19T15:29:50;4.28;;;0.90;;
62582;SDS011;48641;51.676;5.808;2023-09-19T15:32:15;5.43;;;0.98;;
62582;SDS011;48641;51.676;5.808;2023-09-19T15:34:41;4.28;;;1.00;;
62582;SDS011;48641;51.676;5.808;2023-09-19T15:37:06;4.28;;;1.10;;
62582;SDS011;48641;51.676;5.808;2023-09-19T15:39:32;4.43;;;0.90;;
62582;SDS011;48641;51.676;5.808;2023-09-19T15:42:02;4.18;;;0.85;;
62582;SDS011;48641;51.676;5.808;2023-09-19T15:44:28;4.80;;;0.90;;
62582;SDS011;48641;51.676;5.808;2023-09-19T15:46:53;6.90;;;1.00;;
62582;SDS011;48641;51.676;5.808;2023-09-19T15:49:19;6.28;;;1.00;;
62582;SDS011;48641;51.676;5.808;2023-09-19T15:51:45;6.00;;;1.05;;
62582;SDS011;48641;51.676;5.808;2023-09-19T15:54:12;3.42;;;1.00;;
62582;SDS011;48641;51.676;5.808;2023-09-19T15:56:42;4.03;;;1.00;;
62582;SDS011;48641;51.676;5.808;2023-09-19T15:59:09;5.45;;;1.10;;
62582;SDS011;48641;51.676;5.808;2023-09-19T16:01:37;5.32;;;1.00;;
62582;SDS011;48641;51.676;5.808;2023-09-19T16:04:03;4.95;;;1.00;;
62582;SDS011;48641;51.676;5.808;2023-09-19T16:06:33;6.80;;;0.95;;
62582;SDS011;48641;51.676;5.808;2023-09-19T16:09:00;4.78;;;1.15;;